Etusivu
METAR-TAF:

METAR-TAF

Lentoasemat :

Sétif, Algeria

Leveyspiiri: 36-11N, Pituuspiiri: 005-25E, korkeus merenpinnasta: 1038 m

Tämänhetkinen sää

Tämä raportti tehtiin 54 minuuttia sitten, kello 04.00 UTC
Tuuli 3 kn koillisesta
Lämpötila 10°C
Kosteus 71%
Ilmanpaine 1017 hPa
Näkyvyys 10 km tai enemmän
ei pilviä alle 1500 m:ssä eikä cumulonimbus-pilviä

METAR: DAAS 310400Z 05003KT CAVOK 10/05 Q1017

Aika: 05:54 (04:54 UTC)

Sääennuste

Tämä raportti tehtiin 5 tuntia ja 54 minuuttia sitten, kello 23.00 UTC
Ennuste voimassa 31. päivästä klo 00 UTC - 31. päivään klo 24 UTC
Tuuli 2 kn eri suunnista
Näkyvyys 10 km tai enemmän
Muutamia pilviä 3000 ft:n korkeudessa
Tulossa
31. päivästä klo 06 UTC - 31. päivään klo 08 UTC
Tuuli 10 kn etelästä/kaakosta
Ajoittain
31. päivästä klo 12 UTC - 31. päivään klo 18 UTC
Muutamia pilviä 2300 ft:n korkeudessa, Kasvava cumulus-pilvi.

TAF: DAAS 302300Z 3100/3124 VRB02KT 9999 FEW030 BECMG 3106/3108 16010KT TEMPO 3112/3118 FEW023TCU

Säähavainnot ja -ennusteet yli 4000 lentoasemalta (METAR- ja TAF-raportit).

Käytössä olevat sääasemat on merkitty karttaan keltaisilla ja punaisilla pisteillä.

Aseta hiiri pisteen päälle nähdäksesi sääaseman nimen.

Klikkaa sitten nähdäksesi säähavainnot ja -ennusteet.

Kartan vaihtaminen: klikkaa mustalla rastilla varustettuja vihreitä pisteitä, niin voit zoomata sisään; viivalla varustettua vihreää pistettä, niin voit zoomata ulos tai vihreitä nuolia, niin pääset viereisille kartoille.


METAR-TAF: